sensor_id;sensor_type;location;lat;lon;timestamp;P1;durP1;ratioP1;P2;durP2;ratioP2
35891;SDS011;21993;42.672;23.296;2022-12-18T00:01:30;5.83;;;4.30;;
35891;SDS011;21993;42.672;23.296;2022-12-18T00:03:58;5.53;;;4.30;;
35891;SDS011;21993;42.672;23.296;2022-12-18T00:06:25;6.47;;;4.63;;
35891;SDS011;21993;42.672;23.296;2022-12-18T00:08:52;6.80;;;5.13;;
35891;SDS011;21993;42.672;23.296;2022-12-18T00:11:18;4.50;;;4.10;;
35891;SDS011;21993;42.672;23.296;2022-12-18T00:13:45;7.33;;;5.00;;
35891;SDS011;21993;42.672;23.296;2022-12-18T00:16:12;6.63;;;4.30;;
35891;SDS011;21993;42.672;23.296;2022-12-18T00:18:40;6.27;;;4.73;;
35891;SDS011;21993;42.672;23.296;2022-12-18T00:21:08;6.67;;;4.53;;
35891;SDS011;21993;42.672;23.296;2022-12-18T00:23:35;5.47;;;4.07;;
35891;SDS011;21993;42.672;23.296;2022-12-18T00:26:02;6.10;;;4.27;;
35891;SDS011;21993;42.672;23.296;2022-12-18T00:28:30;8.73;;;5.03;;
35891;SDS011;21993;42.672;23.296;2022-12-18T00:31:02;7.70;;;5.40;;
35891;SDS011;21993;42.672;23.296;2022-12-18T00:33:29;5.60;;;4.17;;
35891;SDS011;21993;42.672;23.296;2022-12-18T00:35:54;7.27;;;5.50;;
35891;SDS011;21993;42.672;23.296;2022-12-18T00:38:25;7.17;;;4.80;;
35891;SDS011;21993;42.672;23.296;2022-12-18T00:40:51;7.63;;;5.10;;
35891;SDS011;21993;42.672;23.296;2022-12-18T00:43:16;6.30;;;5.47;;
35891;SDS011;21993;42.672;23.296;2022-12-18T00:45:42;6.73;;;4.60;;
35891;SDS011;21993;42.672;23.296;2022-12-18T00:48:07;7.17;;;5.40;;
35891;SDS011;21993;42.672;23.296;2022-12-18T00:50:32;6.60;;;4.73;;
35891;SDS011;21993;42.672;23.296;2022-12-18T00:52:58;11.37;;;5.43;;
35891;SDS011;21993;42.672;23.296;2022-12-18T00:55:23;7.23;;;5.47;;
35891;SDS011;21993;42.672;23.296;2022-12-18T00:57:50;8.47;;;5.57;;
35891;SDS011;21993;42.672;23.296;2022-12-18T01:00:16;9.97;;;6.07;;
35891;SDS011;21993;42.672;23.296;2022-12-18T01:02:42;6.47;;;5.27;;
35891;SDS011;21993;42.672;23.296;2022-12-18T01:05:08;7.67;;;5.90;;
35891;SDS011;21993;42.672;23.296;2022-12-18T01:07:35;9.70;;;6.10;;
35891;SDS011;21993;42.672;23.296;2022-12-18T01:10:01;8.80;;;5.70;;
35891;SDS011;21993;42.672;23.296;2022-12-18T01:12:26;8.93;;;5.43;;
35891;SDS011;21993;42.672;23.296;2022-12-18T01:14:52;9.80;;;6.00;;
35891;SDS011;21993;42.672;23.296;2022-12-18T01:17:17;9.40;;;5.53;;
35891;SDS011;21993;42.672;23.296;2022-12-18T01:19:42;9.13;;;5.57;;
35891;SDS011;21993;42.672;23.296;2022-12-18T01:22:08;10.80;;;6.07;;
35891;SDS011;21993;42.672;23.296;2022-12-18T01:24:33;8.10;;;4.97;;
35891;SDS011;21993;42.672;23.296;2022-12-18T01:26:59;8.97;;;5.47;;
35891;SDS011;21993;42.672;23.296;2022-12-18T01:29:24;9.63;;;6.27;;
35891;SDS011;21993;42.672;23.296;2022-12-18T01:31:49;9.10;;;5.53;;
35891;SDS011;21993;42.672;23.296;2022-12-18T01:34:15;7.77;;;5.53;;
35891;SDS011;21993;42.672;23.296;2022-12-18T01:36:40;8.57;;;5.73;;
35891;SDS011;21993;42.672;23.296;2022-12-18T01:39:07;9.40;;;5.57;;
35891;SDS011;21993;42.672;23.296;2022-12-18T01:41:35;9.50;;;5.87;;
35891;SDS011;21993;42.672;23.296;2022-12-18T01:49:51;7.37;;;5.30;;
35891;SDS011;21993;42.672;23.296;2022-12-18T01:52:17;8.73;;;6.10;;
35891;SDS011;21993;42.672;23.296;2022-12-18T01:54:45;7.63;;;5.73;;
35891;SDS011;21993;42.672;23.296;2022-12-18T01:57:12;6.20;;;5.10;;
35891;SDS011;21993;42.672;23.296;2022-12-18T01:59:38;6.97;;;5.13;;
35891;SDS011;21993;42.672;23.296;2022-12-18T02:02:06;7.77;;;5.83;;
35891;SDS011;21993;42.672;23.296;2022-12-18T02:04:32;7.80;;;5.23;;
35891;SDS011;21993;42.672;23.296;2022-12-18T02:07:00;7.17;;;5.20;;
35891;SDS011;21993;42.672;23.296;2022-12-18T02:16:23;8.67;;;5.97;;
35891;SDS011;21993;42.672;23.296;2022-12-18T02:18:37;8.20;;;5.73;;
35891;SDS011;21993;42.672;23.296;2022-12-18T02:26:26;9.00;;;5.43;;
35891;SDS011;21993;42.672;23.296;2022-12-18T02:31:40;8.80;;;5.87;;
35891;SDS011;21993;42.672;23.296;2022-12-18T02:34:09;7.57;;;5.60;;
35891;SDS011;21993;42.672;23.296;2022-12-18T02:36:38;8.77;;;6.03;;
35891;SDS011;21993;42.672;23.296;2022-12-18T02:39:07;8.47;;;5.90;;
35891;SDS011;21993;42.672;23.296;2022-12-18T02:41:34;9.80;;;5.87;;
35891;SDS011;21993;42.672;23.296;2022-12-18T02:44:01;8.90;;;5.67;;
35891;SDS011;21993;42.672;23.296;2022-12-18T02:46:34;8.27;;;5.80;;
35891;SDS011;21993;42.672;23.296;2022-12-18T02:51:38;8.60;;;5.70;;
35891;SDS011;21993;42.672;23.296;2022-12-18T02:54:36;7.77;;;4.73;;
35891;SDS011;21993;42.672;23.296;2022-12-18T02:59:58;6.73;;;5.40;;
35891;SDS011;21993;42.672;23.296;2022-12-18T03:02:35;8.73;;;5.67;;
35891;SDS011;21993;42.672;23.296;2022-12-18T03:05:30;7.63;;;5.53;;
35891;SDS011;21993;42.672;23.296;2022-12-18T03:08:04;7.90;;;6.13;;
35891;SDS011;21993;42.672;23.296;2022-12-18T03:10:34;8.93;;;5.87;;
35891;SDS011;21993;42.672;23.296;2022-12-18T03:13:05;8.30;;;5.07;;
35891;SDS011;21993;42.672;23.296;2022-12-18T03:15:38;9.03;;;5.20;;
35891;SDS011;21993;42.672;23.296;2022-12-18T03:18:19;7.17;;;5.50;;
35891;SDS011;21993;42.672;23.296;2022-12-18T03:20:49;9.43;;;5.83;;
35891;SDS011;21993;42.672;23.296;2022-12-18T03:23:19;8.03;;;5.50;;
35891;SDS011;21993;42.672;23.296;2022-12-18T03:25:50;9.27;;;5.57;;
35891;SDS011;21993;42.672;23.296;2022-12-18T03:28:20;6.20;;;5.47;;
35891;SDS011;21993;42.672;23.296;2022-12-18T03:30:46;8.20;;;5.90;;
35891;SDS011;21993;42.672;23.296;2022-12-18T03:33:16;8.67;;;5.70;;
35891;SDS011;21993;42.672;23.296;2022-12-18T03:35:51;7.17;;;5.93;;
35891;SDS011;21993;42.672;23.296;2022-12-18T03:38:17;6.67;;;5.03;;
35891;SDS011;21993;42.672;23.296;2022-12-18T03:43:13;7.77;;;5.13;;
35891;SDS011;21993;42.672;23.296;2022-12-18T03:45:54;6.73;;;4.70;;
35891;SDS011;21993;42.672;23.296;2022-12-18T03:48:33;7.67;;;5.10;;
35891;SDS011;21993;42.672;23.296;2022-12-18T03:51:18;7.07;;;5.03;;
35891;SDS011;21993;42.672;23.296;2022-12-18T03:53:53;6.53;;;5.07;;
35891;SDS011;21993;42.672;23.296;2022-12-18T03:56:23;9.20;;;5.20;;
35891;SDS011;21993;42.672;23.296;2022-12-18T03:58:52;8.80;;;5.17;;
35891;SDS011;21993;42.672;23.296;2022-12-18T04:01:19;6.63;;;5.00;;
35891;SDS011;21993;42.672;23.296;2022-12-18T04:03:47;8.33;;;5.50;;
35891;SDS011;21993;42.672;23.296;2022-12-18T04:06:14;8.83;;;5.90;;
35891;SDS011;21993;42.672;23.296;2022-12-18T04:08:41;8.30;;;5.70;;
35891;SDS011;21993;42.672;23.296;2022-12-18T04:11:07;6.70;;;4.87;;
35891;SDS011;21993;42.672;23.296;2022-12-18T04:13:35;7.73;;;5.37;;
35891;SDS011;21993;42.672;23.296;2022-12-18T04:16:01;6.73;;;5.70;;
35891;SDS011;21993;42.672;23.296;2022-12-18T04:18:27;8.43;;;5.60;;
35891;SDS011;21993;42.672;23.296;2022-12-18T04:20:52;10.03;;;6.20;;
35891;SDS011;21993;42.672;23.296;2022-12-18T04:23:18;10.53;;;5.77;;
35891;SDS011;21993;42.672;23.296;2022-12-18T04:25:43;8.60;;;5.90;;
35891;SDS011;21993;42.672;23.296;2022-12-18T04:28:09;7.63;;;5.50;;
35891;SDS011;21993;42.672;23.296;2022-12-18T04:30:34;11.90;;;6.20;;
35891;SDS011;21993;42.672;23.296;2022-12-18T04:33:00;12.07;;;5.97;;
35891;SDS011;21993;42.672;23.296;2022-12-18T04:35:25;7.27;;;5.40;;
35891;SDS011;21993;42.672;23.296;2022-12-18T04:37:50;8.00;;;5.30;;
35891;SDS011;21993;42.672;23.296;2022-12-18T04:40:16;9.27;;;6.93;;
35891;SDS011;21993;42.672;23.296;2022-12-18T04:42:41;8.77;;;6.50;;
35891;SDS011;21993;42.672;23.296;2022-12-18T04:45:07;11.10;;;6.83;;
35891;SDS011;21993;42.672;23.296;2022-12-18T04:47:33;10.40;;;6.10;;
35891;SDS011;21993;42.672;23.296;2022-12-18T04:49:58;11.30;;;6.37;;
35891;SDS011;21993;42.672;23.296;2022-12-18T04:52:24;10.40;;;6.43;;
35891;SDS011;21993;42.672;23.296;2022-12-18T04:54:49;10.33;;;6.50;;
35891;SDS011;21993;42.672;23.296;2022-12-18T04:57:14;11.43;;;7.43;;
35891;SDS011;21993;42.672;23.296;2022-12-18T04:59:40;10.57;;;6.50;;
35891;SDS011;21993;42.672;23.296;2022-12-18T05:02:05;12.63;;;6.73;;
35891;SDS011;21993;42.672;23.296;2022-12-18T05:04:31;11.40;;;6.67;;
35891;SDS011;21993;42.672;23.296;2022-12-18T05:06:56;14.47;;;6.80;;
35891;SDS011;21993;42.672;23.296;2022-12-18T05:09:22;13.70;;;6.97;;
35891;SDS011;21993;42.672;23.296;2022-12-18T05:11:48;12.10;;;7.37;;
35891;SDS011;21993;42.672;23.296;2022-12-18T05:14:13;11.40;;;7.20;;
35891;SDS011;21993;42.672;23.296;2022-12-18T05:16:38;10.27;;;7.10;;
35891;SDS011;21993;42.672;23.296;2022-12-18T05:19:04;11.40;;;7.57;;
35891;SDS011;21993;42.672;23.296;2022-12-18T05:21:29;10.10;;;6.73;;
35891;SDS011;21993;42.672;23.296;2022-12-18T05:23:55;11.07;;;7.30;;
35891;SDS011;21993;42.672;23.296;2022-12-18T05:26:20;13.00;;;8.03;;
35891;SDS011;21993;42.672;23.296;2022-12-18T05:28:45;12.27;;;7.13;;
35891;SDS011;21993;42.672;23.296;2022-12-18T05:31:11;13.03;;;7.30;;
35891;SDS011;21993;42.672;23.296;2022-12-18T05:33:37;11.73;;;6.83;;
35891;SDS011;21993;42.672;23.296;2022-12-18T05:36:03;15.20;;;8.07;;
35891;SDS011;21993;42.672;23.296;2022-12-18T05:38:31;12.30;;;7.50;;
35891;SDS011;21993;42.672;23.296;2022-12-18T05:40:58;10.77;;;6.80;;
35891;SDS011;21993;42.672;23.296;2022-12-18T05:43:24;10.50;;;6.67;;
35891;SDS011;21993;42.672;23.296;2022-12-18T05:45:51;13.33;;;7.83;;
35891;SDS011;21993;42.672;23.296;2022-12-18T05:48:17;11.80;;;7.03;;
35891;SDS011;21993;42.672;23.296;2022-12-18T05:50:43;12.10;;;7.40;;
35891;SDS011;21993;42.672;23.296;2022-12-18T05:53:13;14.20;;;8.07;;
35891;SDS011;21993;42.672;23.296;2022-12-18T05:55:41;12.00;;;7.27;;
35891;SDS011;21993;42.672;23.296;2022-12-18T05:58:07;14.60;;;8.30;;
35891;SDS011;21993;42.672;23.296;2022-12-18T06:00:35;11.77;;;7.87;;
35891;SDS011;21993;42.672;23.296;2022-12-18T06:03:04;14.77;;;8.40;;
35891;SDS011;21993;42.672;23.296;2022-12-18T06:05:34;13.83;;;8.77;;
35891;SDS011;21993;42.672;23.296;2022-12-18T06:08:04;13.57;;;8.20;;
35891;SDS011;21993;42.672;23.296;2022-12-18T06:10:30;16.37;;;8.83;;
35891;SDS011;21993;42.672;23.296;2022-12-18T06:12:56;15.90;;;8.23;;
35891;SDS011;21993;42.672;23.296;2022-12-18T06:15:21;13.53;;;7.97;;
35891;SDS011;21993;42.672;23.296;2022-12-18T06:17:47;16.23;;;8.93;;
35891;SDS011;21993;42.672;23.296;2022-12-18T06:20:12;13.87;;;9.00;;
35891;SDS011;21993;42.672;23.296;2022-12-18T06:22:38;16.10;;;9.17;;
35891;SDS011;21993;42.672;23.296;2022-12-18T06:25:03;16.03;;;8.20;;
35891;SDS011;21993;42.672;23.296;2022-12-18T06:27:29;14.43;;;8.47;;
35891;SDS011;21993;42.672;23.296;2022-12-18T06:29:54;15.67;;;8.97;;
35891;SDS011;21993;42.672;23.296;2022-12-18T06:32:20;15.10;;;8.83;;
35891;SDS011;21993;42.672;23.296;2022-12-18T06:34:45;13.10;;;7.63;;
35891;SDS011;21993;42.672;23.296;2022-12-18T06:37:11;14.50;;;9.20;;
35891;SDS011;21993;42.672;23.296;2022-12-18T06:39:36;13.57;;;8.30;;
35891;SDS011;21993;42.672;23.296;2022-12-18T06:42:02;14.70;;;9.07;;
35891;SDS011;21993;42.672;23.296;2022-12-18T06:44:28;14.83;;;8.40;;
35891;SDS011;21993;42.672;23.296;2022-12-18T06:46:54;18.93;;;9.27;;
35891;SDS011;21993;42.672;23.296;2022-12-18T06:49:20;15.87;;;8.47;;
35891;SDS011;21993;42.672;23.296;2022-12-18T06:51:45;15.17;;;9.13;;
35891;SDS011;21993;42.672;23.296;2022-12-18T06:54:11;17.50;;;9.07;;
35891;SDS011;21993;42.672;23.296;2022-12-18T06:56:36;17.17;;;10.10;;
35891;SDS011;21993;42.672;23.296;2022-12-18T06:59:02;17.23;;;8.93;;
35891;SDS011;21993;42.672;23.296;2022-12-18T07:01:27;16.03;;;9.63;;
35891;SDS011;21993;42.672;23.296;2022-12-18T07:03:53;18.70;;;8.20;;
35891;SDS011;21993;42.672;23.296;2022-12-18T07:06:20;14.27;;;8.60;;
35891;SDS011;21993;42.672;23.296;2022-12-18T07:08:47;13.27;;;8.33;;
35891;SDS011;21993;42.672;23.296;2022-12-18T07:11:14;14.60;;;8.87;;
35891;SDS011;21993;42.672;23.296;2022-12-18T07:13:40;15.40;;;8.63;;
35891;SDS011;21993;42.672;23.296;2022-12-18T07:16:10;16.70;;;8.60;;
35891;SDS011;21993;42.672;23.296;2022-12-18T07:18:37;12.60;;;8.53;;
35891;SDS011;21993;42.672;23.296;2022-12-18T07:21:06;12.27;;;7.73;;
35891;SDS011;21993;42.672;23.296;2022-12-18T07:23:36;14.13;;;8.23;;
35891;SDS011;21993;42.672;23.296;2022-12-18T07:26:02;13.87;;;8.20;;
35891;SDS011;21993;42.672;23.296;2022-12-18T07:28:29;9.93;;;7.40;;
35891;SDS011;21993;42.672;23.296;2022-12-18T07:30:55;12.97;;;8.40;;
35891;SDS011;21993;42.672;23.296;2022-12-18T07:33:20;16.73;;;8.97;;
35891;SDS011;21993;42.672;23.296;2022-12-18T07:35:45;15.10;;;8.43;;
35891;SDS011;21993;42.672;23.296;2022-12-18T07:38:11;13.27;;;7.90;;
35891;SDS011;21993;42.672;23.296;2022-12-18T07:40:36;16.10;;;9.63;;
35891;SDS011;21993;42.672;23.296;2022-12-18T07:43:02;16.43;;;9.33;;
35891;SDS011;21993;42.672;23.296;2022-12-18T07:45:30;14.77;;;8.30;;
35891;SDS011;21993;42.672;23.296;2022-12-18T07:47:55;17.83;;;9.03;;
35891;SDS011;21993;42.672;23.296;2022-12-18T07:50:21;15.77;;;8.33;;
35891;SDS011;21993;42.672;23.296;2022-12-18T07:52:46;15.43;;;8.80;;
35891;SDS011;21993;42.672;23.296;2022-12-18T07:55:12;18.43;;;9.47;;
35891;SDS011;21993;42.672;23.296;2022-12-18T07:57:37;17.83;;;9.87;;
35891;SDS011;21993;42.672;23.296;2022-12-18T08:00:03;16.20;;;9.80;;
35891;SDS011;21993;42.672;23.296;2022-12-18T08:02:30;19.40;;;11.27;;
35891;SDS011;21993;42.672;23.296;2022-12-18T08:04:56;16.77;;;9.00;;
35891;SDS011;21993;42.672;23.296;2022-12-18T08:07:22;16.40;;;10.23;;
35891;SDS011;21993;42.672;23.296;2022-12-18T08:09:47;22.03;;;10.83;;
35891;SDS011;21993;42.672;23.296;2022-12-18T08:12:12;21.50;;;11.43;;
35891;SDS011;21993;42.672;23.296;2022-12-18T08:14:38;22.47;;;10.73;;
35891;SDS011;21993;42.672;23.296;2022-12-18T08:17:03;16.30;;;9.57;;
35891;SDS011;21993;42.672;23.296;2022-12-18T08:19:28;19.60;;;10.53;;
35891;SDS011;21993;42.672;23.296;2022-12-18T08:21:54;21.43;;;10.90;;
35891;SDS011;21993;42.672;23.296;2022-12-18T08:24:19;17.30;;;9.93;;
35891;SDS011;21993;42.672;23.296;2022-12-18T08:26:44;19.63;;;11.43;;
35891;SDS011;21993;42.672;23.296;2022-12-18T08:29:10;19.50;;;10.53;;
35891;SDS011;21993;42.672;23.296;2022-12-18T08:31:36;17.80;;;9.63;;
35891;SDS011;21993;42.672;23.296;2022-12-18T08:34:02;18.40;;;10.00;;
35891;SDS011;21993;42.672;23.296;2022-12-18T08:36:27;18.40;;;10.43;;
35891;SDS011;21993;42.672;23.296;2022-12-18T08:38:53;18.30;;;11.13;;
35891;SDS011;21993;42.672;23.296;2022-12-18T08:41:19;20.53;;;11.07;;
35891;SDS011;21993;42.672;23.296;2022-12-18T08:43:45;16.37;;;10.97;;
35891;SDS011;21993;42.672;23.296;2022-12-18T08:46:48;21.53;;;10.73;;
35891;SDS011;21993;42.672;23.296;2022-12-18T08:49:13;24.33;;;10.50;;
35891;SDS011;21993;42.672;23.296;2022-12-18T08:51:39;22.60;;;11.30;;
35891;SDS011;21993;42.672;23.296;2022-12-18T08:54:05;22.43;;;11.77;;
35891;SDS011;21993;42.672;23.296;2022-12-18T08:56:31;22.97;;;11.60;;
35891;SDS011;21993;42.672;23.296;2022-12-18T08:58:56;23.47;;;12.53;;
35891;SDS011;21993;42.672;23.296;2022-12-18T09:01:22;22.67;;;12.03;;
35891;SDS011;21993;42.672;23.296;2022-12-18T09:03:49;16.97;;;10.73;;
35891;SDS011;21993;42.672;23.296;2022-12-18T09:06:16;21.30;;;11.20;;
35891;SDS011;21993;42.672;23.296;2022-12-18T09:08:43;20.53;;;11.10;;
35891;SDS011;21993;42.672;23.296;2022-12-18T09:11:42;22.63;;;12.10;;
35891;SDS011;21993;42.672;23.296;2022-12-18T09:14:00;22.70;;;11.70;;
35891;SDS011;21993;42.672;23.296;2022-12-18T09:16:27;20.80;;;10.93;;
35891;SDS011;21993;42.672;23.296;2022-12-18T09:18:57;23.87;;;11.23;;
35891;SDS011;21993;42.672;23.296;2022-12-18T09:21:27;23.50;;;12.03;;
35891;SDS011;21993;42.672;23.296;2022-12-18T09:23:54;19.97;;;11.63;;
35891;SDS011;21993;42.672;23.296;2022-12-18T09:26:21;20.53;;;11.03;;
35891;SDS011;21993;42.672;23.296;2022-12-18T09:28:48;20.03;;;10.60;;
35891;SDS011;21993;42.672;23.296;2022-12-18T09:31:13;20.67;;;10.97;;
35891;SDS011;21993;42.672;23.296;2022-12-18T09:33:39;23.97;;;11.77;;
35891;SDS011;21993;42.672;23.296;2022-12-18T09:36:05;22.73;;;10.63;;
35891;SDS011;21993;42.672;23.296;2022-12-18T09:38:32;20.40;;;10.67;;
35891;SDS011;21993;42.672;23.296;2022-12-18T09:41:04;16.80;;;10.03;;
35891;SDS011;21993;42.672;23.296;2022-12-18T09:43:51;28.03;;;12.17;;
35891;SDS011;21993;42.672;23.296;2022-12-18T09:46:26;20.80;;;9.87;;
35891;SDS011;21993;42.672;23.296;2022-12-18T09:48:56;15.77;;;9.43;;
35891;SDS011;21993;42.672;23.296;2022-12-18T09:53:55;19.23;;;9.67;;
35891;SDS011;21993;42.672;23.296;2022-12-18T09:56:24;22.40;;;10.13;;
35891;SDS011;21993;42.672;23.296;2022-12-18T10:01:24;20.37;;;10.60;;
35891;SDS011;21993;42.672;23.296;2022-12-18T10:03:51;17.47;;;10.67;;
35891;SDS011;21993;42.672;23.296;2022-12-18T10:11:53;17.77;;;10.07;;
35891;SDS011;21993;42.672;23.296;2022-12-18T10:17:45;17.63;;;9.87;;
35891;SDS011;21993;42.672;23.296;2022-12-18T10:20:13;15.67;;;8.87;;
35891;SDS011;21993;42.672;23.296;2022-12-18T10:25:41;21.03;;;10.73;;
35891;SDS011;21993;42.672;23.296;2022-12-18T10:28:15;15.57;;;9.10;;
35891;SDS011;21993;42.672;23.296;2022-12-18T10:30:43;15.40;;;8.90;;
35891;SDS011;21993;42.672;23.296;2022-12-18T10:33:13;17.93;;;10.60;;
35891;SDS011;21993;42.672;23.296;2022-12-18T10:35:41;12.90;;;9.07;;
35891;SDS011;21993;42.672;23.296;2022-12-18T10:41:01;17.73;;;9.57;;
35891;SDS011;21993;42.672;23.296;2022-12-18T10:44:09;21.57;;;11.57;;
35891;SDS011;21993;42.672;23.296;2022-12-18T10:46:44;16.60;;;10.10;;
35891;SDS011;21993;42.672;23.296;2022-12-18T10:49:25;22.63;;;11.83;;
35891;SDS011;21993;42.672;23.296;2022-12-18T10:52:05;19.70;;;10.23;;
35891;SDS011;21993;42.672;23.296;2022-12-18T10:54:39;23.80;;;11.33;;
35891;SDS011;21993;42.672;23.296;2022-12-18T10:57:14;19.77;;;11.20;;
35891;SDS011;21993;42.672;23.296;2022-12-18T10:59:54;20.50;;;10.73;;
35891;SDS011;21993;42.672;23.296;2022-12-18T11:02:25;19.87;;;10.30;;
35891;SDS011;21993;42.672;23.296;2022-12-18T11:05:01;16.60;;;9.03;;
35891;SDS011;21993;42.672;23.296;2022-12-18T11:07:46;19.37;;;9.80;;
35891;SDS011;21993;42.672;23.296;2022-12-18T11:10:16;17.20;;;9.33;;
35891;SDS011;21993;42.672;23.296;2022-12-18T11:12:43;17.07;;;8.87;;
35891;SDS011;21993;42.672;23.296;2022-12-18T11:15:21;16.37;;;8.73;;
35891;SDS011;21993;42.672;23.296;2022-12-18T11:17:51;15.33;;;9.93;;
35891;SDS011;21993;42.672;23.296;2022-12-18T11:20:35;15.00;;;8.77;;
35891;SDS011;21993;42.672;23.296;2022-12-18T11:23:02;16.93;;;8.70;;
35891;SDS011;21993;42.672;23.296;2022-12-18T11:25:37;16.60;;;9.40;;
35891;SDS011;21993;42.672;23.296;2022-12-18T11:28:04;18.97;;;9.77;;
35891;SDS011;21993;42.672;23.296;2022-12-18T11:30:50;19.40;;;8.67;;
35891;SDS011;21993;42.672;23.296;2022-12-18T11:33:59;18.27;;;9.93;;
35891;SDS011;21993;42.672;23.296;2022-12-18T11:36:39;19.30;;;10.27;;
35891;SDS011;21993;42.672;23.296;2022-12-18T11:39:20;20.73;;;10.73;;
35891;SDS011;21993;42.672;23.296;2022-12-18T11:42:11;16.00;;;8.80;;
35891;SDS011;21993;42.672;23.296;2022-12-18T11:44:57;20.33;;;9.30;;
35891;SDS011;21993;42.672;23.296;2022-12-18T11:50:17;13.37;;;8.07;;
35891;SDS011;21993;42.672;23.296;2022-12-18T11:52:47;16.37;;;8.57;;
35891;SDS011;21993;42.672;23.296;2022-12-18T11:55:14;14.63;;;8.53;;
35891;SDS011;21993;42.672;23.296;2022-12-18T11:57:53;13.73;;;8.80;;
35891;SDS011;21993;42.672;23.296;2022-12-18T12:00:22;15.70;;;8.57;;
35891;SDS011;21993;42.672;23.296;2022-12-18T12:08:26;16.43;;;10.07;;
35891;SDS011;21993;42.672;23.296;2022-12-18T12:13:41;16.93;;;9.43;;
35891;SDS011;21993;42.672;23.296;2022-12-18T12:38:05;18.67;;;10.20;;
35891;SDS011;21993;42.672;23.296;2022-12-18T12:40:37;16.37;;;9.93;;
35891;SDS011;21993;42.672;23.296;2022-12-18T12:46:02;18.77;;;10.60;;
35891;SDS011;21993;42.672;23.296;2022-12-18T12:51:26;17.10;;;10.13;;
35891;SDS011;21993;42.672;23.296;2022-12-18T12:53:51;18.83;;;11.07;;
35891;SDS011;21993;42.672;23.296;2022-12-18T12:56:19;20.50;;;11.50;;
35891;SDS011;21993;42.672;23.296;2022-12-18T12:58:55;19.90;;;11.47;;
35891;SDS011;21993;42.672;23.296;2022-12-18T13:01:43;21.43;;;11.90;;
35891;SDS011;21993;42.672;23.296;2022-12-18T13:13:06;18.33;;;8.80;;
35891;SDS011;21993;42.672;23.296;2022-12-18T13:15:36;17.93;;;9.67;;
35891;SDS011;21993;42.672;23.296;2022-12-18T13:23:01;15.33;;;10.00;;
35891;SDS011;21993;42.672;23.296;2022-12-18T13:25:50;19.27;;;9.57;;
35891;SDS011;21993;42.672;23.296;2022-12-18T13:28:20;18.57;;;9.30;;
35891;SDS011;21993;42.672;23.296;2022-12-18T13:30:53;19.47;;;10.73;;
35891;SDS011;21993;42.672;23.296;2022-12-18T13:38:38;17.00;;;9.83;;
35891;SDS011;21993;42.672;23.296;2022-12-18T13:43:41;21.37;;;9.40;;
35891;SDS011;21993;42.672;23.296;2022-12-18T13:51:21;20.27;;;10.33;;
35891;SDS011;21993;42.672;23.296;2022-12-18T13:53:49;18.27;;;10.73;;
35891;SDS011;21993;42.672;23.296;2022-12-18T13:56:21;19.17;;;10.33;;
35891;SDS011;21993;42.672;23.296;2022-12-18T14:01:42;20.93;;;10.30;;
35891;SDS011;21993;42.672;23.296;2022-12-18T14:04:23;18.27;;;9.57;;
35891;SDS011;21993;42.672;23.296;2022-12-18T14:07:04;16.30;;;9.70;;
35891;SDS011;21993;42.672;23.296;2022-12-18T14:09:45;16.93;;;9.73;;
35891;SDS011;21993;42.672;23.296;2022-12-18T14:12:14;19.07;;;9.20;;
35891;SDS011;21993;42.672;23.296;2022-12-18T14:15:06;14.33;;;8.67;;
35891;SDS011;21993;42.672;23.296;2022-12-18T14:17:45;14.27;;;8.57;;
35891;SDS011;21993;42.672;23.296;2022-12-18T14:20:14;13.37;;;8.20;;
35891;SDS011;21993;42.672;23.296;2022-12-18T14:22:43;12.53;;;7.63;;
35891;SDS011;21993;42.672;23.296;2022-12-18T14:25:18;20.63;;;8.40;;
35891;SDS011;21993;42.672;23.296;2022-12-18T14:28:31;18.67;;;8.57;;
35891;SDS011;21993;42.672;23.296;2022-12-18T14:30:32;16.30;;;10.30;;
35891;SDS011;21993;42.672;23.296;2022-12-18T14:35:33;12.40;;;7.23;;
35891;SDS011;21993;42.672;23.296;2022-12-18T14:38:10;11.73;;;7.03;;
35891;SDS011;21993;42.672;23.296;2022-12-18T14:40:36;16.13;;;8.57;;
35891;SDS011;21993;42.672;23.296;2022-12-18T14:43:01;13.93;;;8.43;;
35891;SDS011;21993;42.672;23.296;2022-12-18T14:46:00;16.30;;;8.10;;
35891;SDS011;21993;42.672;23.296;2022-12-18T14:50:54;14.13;;;8.07;;
35891;SDS011;21993;42.672;23.296;2022-12-18T14:54:05;14.47;;;8.47;;
35891;SDS011;21993;42.672;23.296;2022-12-18T14:58:48;15.57;;;9.37;;
35891;SDS011;21993;42.672;23.296;2022-12-18T15:01:21;15.13;;;9.47;;
35891;SDS011;21993;42.672;23.296;2022-12-18T15:03:49;21.63;;;10.60;;
35891;SDS011;21993;42.672;23.296;2022-12-18T15:06:24;15.77;;;9.80;;
35891;SDS011;21993;42.672;23.296;2022-12-18T15:08:53;20.97;;;10.57;;
35891;SDS011;21993;42.672;23.296;2022-12-18T15:11:42;18.53;;;10.37;;
35891;SDS011;21993;42.672;23.296;2022-12-18T15:17:01;17.47;;;9.67;;
35891;SDS011;21993;42.672;23.296;2022-12-18T15:19:39;18.43;;;9.63;;
35891;SDS011;21993;42.672;23.296;2022-12-18T15:22:16;17.60;;;9.53;;
35891;SDS011;21993;42.672;23.296;2022-12-18T15:24:48;16.93;;;9.73;;
35891;SDS011;21993;42.672;23.296;2022-12-18T15:27:28;15.40;;;8.77;;
35891;SDS011;21993;42.672;23.296;2022-12-18T15:32:26;14.43;;;9.10;;
35891;SDS011;21993;42.672;23.296;2022-12-18T15:35:02;16.70;;;8.70;;
35891;SDS011;21993;42.672;23.296;2022-12-18T15:37:41;15.73;;;9.20;;
35891;SDS011;21993;42.672;23.296;2022-12-18T15:40:08;16.60;;;9.17;;
35891;SDS011;21993;42.672;23.296;2022-12-18T15:42:38;20.80;;;9.93;;
35891;SDS011;21993;42.672;23.296;2022-12-18T15:45:22;16.63;;;9.37;;
35891;SDS011;21993;42.672;23.296;2022-12-18T15:47:47;18.43;;;9.40;;
35891;SDS011;21993;42.672;23.296;2022-12-18T15:50:12;18.77;;;9.03;;
35891;SDS011;21993;42.672;23.296;2022-12-18T15:52:42;16.00;;;8.77;;
35891;SDS011;21993;42.672;23.296;2022-12-18T15:55:12;12.13;;;8.43;;
35891;SDS011;21993;42.672;23.296;2022-12-18T15:57:57;18.80;;;9.47;;
35891;SDS011;21993;42.672;23.296;2022-12-18T16:00:22;16.50;;;8.77;;
35891;SDS011;21993;42.672;23.296;2022-12-18T16:02:48;18.03;;;8.90;;
35891;SDS011;21993;42.672;23.296;2022-12-18T16:05:13;19.63;;;9.87;;
35891;SDS011;21993;42.672;23.296;2022-12-18T16:07:41;17.67;;;10.20;;
35891;SDS011;21993;42.672;23.296;2022-12-18T16:10:07;17.27;;;9.53;;
35891;SDS011;21993;42.672;23.296;2022-12-18T16:12:33;15.90;;;9.40;;
35891;SDS011;21993;42.672;23.296;2022-12-18T16:14:58;20.33;;;9.33;;
35891;SDS011;21993;42.672;23.296;2022-12-18T16:17:24;17.00;;;8.27;;
35891;SDS011;21993;42.672;23.296;2022-12-18T16:19:49;15.17;;;8.57;;
35891;SDS011;21993;42.672;23.296;2022-12-18T16:22:19;13.53;;;7.93;;
35891;SDS011;21993;42.672;23.296;2022-12-18T16:24:46;16.63;;;9.27;;
35891;SDS011;21993;42.672;23.296;2022-12-18T16:27:12;16.03;;;9.20;;
35891;SDS011;21993;42.672;23.296;2022-12-18T16:29:37;15.43;;;8.17;;
35891;SDS011;21993;42.672;23.296;2022-12-18T16:32:02;16.03;;;9.43;;
35891;SDS011;21993;42.672;23.296;2022-12-18T16:34:29;15.37;;;8.47;;
35891;SDS011;21993;42.672;23.296;2022-12-18T16:36:56;13.90;;;8.27;;
35891;SDS011;21993;42.672;23.296;2022-12-18T16:39:23;15.67;;;9.07;;
35891;SDS011;21993;42.672;23.296;2022-12-18T16:41:49;23.93;;;9.57;;
35891;SDS011;21993;42.672;23.296;2022-12-18T16:44:14;18.37;;;8.83;;
35891;SDS011;21993;42.672;23.296;2022-12-18T16:46:40;24.80;;;10.90;;